Аэропорт: Ханты-Мансийск. Ханты-Мансийск

ICAO: USHH

METAR:
2019/01/21 23:00
USHH 212300Z 18004MPS 9999 -SN SCT046 M15/M17 Q1008 R24/390034 TEMPO 1000 SN OVC003 RMK QFE752
METAR:
2019/01/21 21:00
TAF 
      AMD USHH 212001Z 2121/2221 18003MPS 4000 -SN BKN006 OVC015 
      TEMPO 2121/2209 2000 SHSN BR BKN003 OVC011CB